Time,TemperatureF,DewpointF,PressureIn,WindDirection,WindDirectionDegrees,WindSpeedMPH,WindSpeedGustMPH,Humidity,HourlyPrecipIn,Conditions,Clouds,dailyrainin,SoftwareType,DateUTC
2013-10-22 00:02:00,56.7,50.6,29.88,ESE,112,0.9,3.8,80,0.00,,,0.00,WUHU216WMR100,2013-10-22 07:02:00,
2013-10-22 00:07:00,56.7,50.3,29.85,ESE,112,0.0,3.8,79,0.00,,,0.00,WUHU216WMR100,2013-10-22 07:07:00,
2013-10-22 00:12:00,56.1,49.7,29.85,ESE,112,0.0,2.9,79,0.00,,,0.00,WUHU216WMR100,2013-10-22 07:12:00,
2013-10-22 00:17:00,55.2,49.2,29.85,ESE,112,0.0,0.9,80,0.00,,,0.00,WUHU216WMR100,2013-10-22 07:17:00,
2013-10-22 00:22:00,54.5,48.8,29.88,ESE,112,0.0,0.0,81,0.00,,,0.00,WUHU216WMR100,2013-10-22 07:22:00,
2013-10-22 00:27:00,54.0,48.7,29.88,ESE,112,0.0,0.0,82,0.00,,,0.00,WUHU216WMR100,2013-10-22 07:27:00,
2013-10-22 00:32:00,53.2,47.9,29.88,ESE,112,0.0,0.0,82,0.00,,,0.00,WUHU216WMR100,2013-10-22 07:32:00,
2013-10-22 00:37:00,52.7,47.7,29.88,ESE,112,0.0,0.0,83,0.00,,,0.00,WUHU216WMR100,2013-10-22 07:37:00,
2013-10-22 00:42:00,52.3,47.9,29.88,ESE,112,0.0,0.0,85,0.00,,,0.00,WUHU216WMR100,2013-10-22 07:42:00,
2013-10-22 00:47:00,52.5,48.1,29.88,ESE,112,0.0,0.0,85,0.00,,,0.00,WUHU216WMR100,2013-10-22 07:47:00,
2013-10-22 00:52:00,52.5,48.4,29.88,ESE,112,0.0,0.0,86,0.00,,,0.00,WUHU216WMR100,2013-10-22 07:52:00,
2013-10-22 00:57:00,52.5,48.7,29.88,ESE,112,0.0,0.0,87,0.00,,,0.00,WUHU216WMR100,2013-10-22 07:57:00,
2013-10-22 01:02:00,52.3,48.5,29.88,ESE,112,0.0,0.0,87,0.00,,,0.00,WUHU216WMR100,2013-10-22 08:02:00,
2013-10-22 01:07:00,52.5,48.7,29.88,ESE,112,0.0,0.0,87,0.00,,,0.00,WUHU216WMR100,2013-10-22 08:07:00,
2013-10-22 01:12:00,52.2,48.4,29.88,ESE,112,0.0,0.0,87,0.00,,,0.00,WUHU216WMR100,2013-10-22 08:12:00,
2013-10-22 01:17:00,51.3,47.2,29.88,ESE,112,1.6,2.5,86,0.00,,,0.00,WUHU216WMR100,2013-10-22 08:17:00,
2013-10-22 01:22:00,50.7,47.0,29.88,ESE,112,0.0,2.5,87,0.00,,,0.00,WUHU216WMR100,2013-10-22 08:22:00,
2013-10-22 01:27:00,50.5,47.1,29.88,ESE,112,0.0,1.6,88,0.00,,,0.00,WUHU216WMR100,2013-10-22 08:27:00,
2013-10-22 01:32:00,50.4,47.0,29.88,ESE,112,0.0,0.0,88,0.00,,,0.00,WUHU216WMR100,2013-10-22 08:32:00,
2013-10-22 01:37:00,50.2,47.1,29.88,ESE,112,0.0,0.0,89,0.00,,,0.00,WUHU216WMR100,2013-10-22 08:37:00,
2013-10-22 01:42:00,50.2,47.3,29.88,ESE,112,0.0,0.0,90,0.00,,,0.00,WUHU216WMR100,2013-10-22 08:42:00,
2013-10-22 01:47:00,50.2,47.6,29.88,ESE,112,0.0,0.0,91,0.00,,,0.00,WUHU216WMR100,2013-10-22 08:47:00,
2013-10-22 01:52:00,50.0,47.4,29.88,ESE,112,0.0,0.0,91,0.00,,,0.00,WUHU216WMR100,2013-10-22 08:52:00,
2013-10-22 01:57:00,50.0,47.4,29.88,ESE,112,0.0,0.0,91,0.00,,,0.00,WUHU216WMR100,2013-10-22 08:57:00,
2013-10-22 02:02:00,50.0,47.4,29.88,ESE,112,0.0,0.0,91,0.00,,,0.00,WUHU216WMR100,2013-10-22 09:02:00,
2013-10-22 02:07:00,49.8,47.5,29.88,ESE,112,0.0,0.0,92,0.00,,,0.00,WUHU216WMR100,2013-10-22 09:07:00,
2013-10-22 02:12:00,49.8,47.5,29.88,ESE,112,0.0,0.0,92,0.00,,,0.00,WUHU216WMR100,2013-10-22 09:12:00,
2013-10-22 02:17:00,50.0,47.7,29.88,ESE,112,0.0,0.0,92,0.00,,,0.00,WUHU216WMR100,2013-10-22 09:17:00,
2013-10-22 02:22:00,50.2,47.9,29.88,ESE,112,0.0,0.0,92,0.00,,,0.00,WUHU216WMR100,2013-10-22 09:22:00,
2013-10-22 02:27:00,50.0,47.7,29.88,ESE,112,0.0,0.0,92,0.00,,,0.00,WUHU216WMR100,2013-10-22 09:27:00,
2013-10-22 02:32:00,50.2,47.9,29.88,ESE,112,0.0,1.6,92,0.00,,,0.00,WUHU216WMR100,2013-10-22 09:32:00,
2013-10-22 02:37:00,50.4,48.1,29.88,ESE,112,0.0,1.6,92,0.00,,,0.00,WUHU216WMR100,2013-10-22 09:37:00,
2013-10-22 02:42:00,50.4,48.1,29.88,ESE,112,0.0,0.9,92,0.00,,,0.00,WUHU216WMR100,2013-10-22 09:42:00,
2013-10-22 02:47:00,50.2,47.9,29.88,ESE,112,0.0,2.5,92,0.00,,,0.00,WUHU216WMR100,2013-10-22 09:47:00,
2013-10-22 02:52:00,50.2,47.9,29.88,ESE,112,0.0,2.5,92,0.00,,,0.00,WUHU216WMR100,2013-10-22 09:52:00,
2013-10-22 02:57:00,49.8,47.8,29.88,ESE,112,0.0,0.0,93,0.00,,,0.00,WUHU216WMR100,2013-10-22 09:57:00,
2013-10-22 03:02:00,49.6,47.6,29.88,ESE,112,0.0,0.0,93,0.00,,,0.00,WUHU216WMR100,2013-10-22 10:02:00,
2013-10-22 03:07:00,49.3,47.0,29.88,ESE,112,0.0,0.0,92,0.00,,,0.00,WUHU216WMR100,2013-10-22 10:07:00,
2013-10-22 03:12:00,49.3,47.3,29.88,ESE,112,0.0,0.0,93,0.00,,,0.00,WUHU216WMR100,2013-10-22 10:12:00,
2013-10-22 03:17:00,49.3,47.3,29.88,ESE,112,0.0,0.0,93,0.00,,,0.00,WUHU216WMR100,2013-10-22 10:17:00,
2013-10-22 03:22:00,49.3,47.3,29.88,ESE,112,0.9,2.9,93,0.00,,,0.00,WUHU216WMR100,2013-10-22 10:22:00,
2013-10-22 03:27:00,49.3,47.3,29.88,ESE,112,0.0,2.9,93,0.00,,,0.00,WUHU216WMR100,2013-10-22 10:27:00,
2013-10-22 03:32:00,49.3,47.3,29.88,ESE,112,0.0,2.0,93,0.00,,,0.00,WUHU216WMR100,2013-10-22 10:32:00,
2013-10-22 03:37:00,49.3,47.3,29.88,ESE,112,0.0,2.0,93,0.00,,,0.00,WUHU216WMR100,2013-10-22 10:37:00,
2013-10-22 03:42:00,48.9,46.9,29.88,ESE,112,0.0,0.9,93,0.00,,,0.00,WUHU216WMR100,2013-10-22 10:42:00,
2013-10-22 03:47:00,48.7,46.7,29.88,ESE,112,0.0,0.0,93,0.00,,,0.00,WUHU216WMR100,2013-10-22 10:47:00,
2013-10-22 03:52:00,48.9,46.9,29.88,ESE,112,1.1,2.7,93,0.00,,,0.00,WUHU216WMR100,2013-10-22 10:52:00,
2013-10-22 03:57:00,49.3,47.6,29.88,ESE,112,1.6,2.7,94,0.00,,,0.00,WUHU216WMR100,2013-10-22 10:57:00,
2013-10-22 04:02:00,49.3,47.9,29.88,ESE,112,0.0,2.5,95,0.00,,,0.00,WUHU216WMR100,2013-10-22 11:02:00,
2013-10-22 04:07:00,49.5,48.1,29.88,ESE,112,0.0,2.7,95,0.00,,,0.00,WUHU216WMR100,2013-10-22 11:07:00,
2013-10-22 04:12:00,49.5,48.1,29.88,ESE,112,0.9,2.7,95,0.00,,,0.00,WUHU216WMR100,2013-10-22 11:12:00,
2013-10-22 04:17:00,49.1,47.7,29.88,ESE,112,0.0,1.6,95,0.00,,,0.00,WUHU216WMR100,2013-10-22 11:17:00,
2013-10-22 04:22:00,48.9,47.5,29.88,ESE,112,0.0,0.9,95,0.00,,,0.00,WUHU216WMR100,2013-10-22 11:22:00,
2013-10-22 04:27:00,48.7,47.3,29.88,ESE,112,0.0,0.9,95,0.00,,,0.00,WUHU216WMR100,2013-10-22 11:27:00,
2013-10-22 04:32:00,48.6,47.2,29.88,ESE,112,0.0,0.0,95,0.00,,,0.00,WUHU216WMR100,2013-10-22 11:32:00,
2013-10-22 04:37:00,48.2,46.8,29.88,ESE,112,0.0,0.0,95,0.00,,,0.00,WUHU216WMR100,2013-10-22 11:37:00,
2013-10-22 04:42:00,48.0,46.9,29.88,ESE,112,0.0,0.0,96,0.00,,,0.00,WUHU216WMR100,2013-10-22 11:42:00,
2013-10-22 04:47:00,47.8,46.7,29.88,ESE,112,0.0,0.0,96,0.00,,,0.00,WUHU216WMR100,2013-10-22 11:47:00,
2013-10-22 04:52:00,47.8,46.7,29.88,ESE,112,0.0,0.0,96,0.00,,,0.00,WUHU216WMR100,2013-10-22 11:52:00,
2013-10-22 04:57:00,47.7,46.6,29.88,ESE,112,0.0,0.0,96,0.00,,,0.00,WUHU216WMR100,2013-10-22 11:57:00,
2013-10-22 05:02:00,47.8,46.7,29.88,ESE,112,0.0,0.0,96,0.00,,,0.00,WUHU216WMR100,2013-10-22 12:02:00,
2013-10-22 05:07:00,48.2,47.1,29.88,ESE,112,0.0,1.6,96,0.00,,,0.00,WUHU216WMR100,2013-10-22 12:07:00,
2013-10-22 05:12:00,48.4,47.3,29.88,ESE,112,2.2,4.0,96,0.00,,,0.00,WUHU216WMR100,2013-10-22 12:12:00,
2013-10-22 05:17:00,48.7,47.9,29.88,ESE,112,2.5,4.0,97,0.00,,,0.00,WUHU216WMR100,2013-10-22 12:17:00,
2013-10-22 05:22:00,48.6,47.8,29.88,ESE,112,2.2,3.6,97,0.00,,,0.00,WUHU216WMR100,2013-10-22 12:22:00,
2013-10-22 05:27:00,48.7,48.1,29.88,ESE,112,3.4,4.3,98,0.00,,,0.00,WUHU216WMR100,2013-10-22 12:27:00,
2013-10-22 05:32:00,48.7,48.1,29.88,ESE,112,2.5,4.3,98,0.00,,,0.00,WUHU216WMR100,2013-10-22 12:32:00,
2013-10-22 05:37:00,48.6,48.0,29.91,ESE,112,1.1,3.6,98,0.00,,,0.00,WUHU216WMR100,2013-10-22 12:37:00,
2013-10-22 05:42:00,48.4,47.8,29.91,ESE,112,2.7,3.1,98,0.00,,,0.00,WUHU216WMR100,2013-10-22 12:42:00,
2013-10-22 05:47:00,48.4,47.8,29.91,ESE,112,0.0,3.1,98,0.00,,,0.00,WUHU216WMR100,2013-10-22 12:47:00,
2013-10-22 05:52:00,48.6,48.0,29.88,ESE,112,4.5,5.8,98,0.00,,,0.00,WUHU216WMR100,2013-10-22 12:52:00,
2013-10-22 05:57:00,48.6,48.0,29.88,ESE,112,2.9,5.8,98,0.00,,,0.00,WUHU216WMR100,2013-10-22 12:57:00,
2013-10-22 06:02:00,48.4,47.8,29.88,ESE,112,2.5,4.7,98,0.00,,,0.00,WUHU216WMR100,2013-10-22 13:02:00,
2013-10-22 06:07:00,48.2,47.6,29.91,ESE,112,2.7,4.7,98,0.00,,,0.00,WUHU216WMR100,2013-10-22 13:07:00,
2013-10-22 06:12:00,48.0,47.4,29.91,ESE,112,0.0,3.6,98,0.00,,,0.00,WUHU216WMR100,2013-10-22 13:12:00,
2013-10-22 06:17:00,47.7,47.1,29.91,ESE,112,0.0,2.9,98,0.00,,,0.00,WUHU216WMR100,2013-10-22 13:17:00,
2013-10-22 06:22:00,47.3,46.7,29.88,ESE,112,0.0,1.6,98,0.00,,,0.00,WUHU216WMR100,2013-10-22 13:22:00,
2013-10-22 06:27:00,46.9,46.3,29.88,ESE,112,0.0,0.0,98,0.00,,,0.00,WUHU216WMR100,2013-10-22 13:27:00,
2013-10-22 06:32:00,46.8,46.2,29.88,ESE,112,0.0,0.0,98,0.00,,,0.00,WUHU216WMR100,2013-10-22 13:32:00,
2013-10-22 06:37:00,46.4,45.8,29.91,ESE,112,0.0,0.0,98,0.00,,,0.00,WUHU216WMR100,2013-10-22 13:37:00,
2013-10-22 06:42:00,46.2,45.6,29.91,ESE,112,0.0,0.0,98,0.00,,,0.00,WUHU216WMR100,2013-10-22 13:42:00,
2013-10-22 06:47:00,46.0,45.4,29.91,ESE,112,0.0,0.0,98,0.00,,,0.00,WUHU216WMR100,2013-10-22 13:47:00,
2013-10-22 06:52:00,46.0,45.4,29.91,ESE,112,0.0,0.0,98,0.00,,,0.00,WUHU216WMR100,2013-10-22 13:52:00,
2013-10-22 06:57:00,45.7,45.1,29.91,ESE,112,0.0,0.0,98,0.00,,,0.00,WUHU216WMR100,2013-10-22 13:57:00,
2013-10-22 07:02:00,45.7,45.1,29.91,ESE,112,0.0,0.0,98,0.00,,,0.00,WUHU216WMR100,2013-10-22 14:02:00,
2013-10-22 07:07:00,45.7,45.1,29.88,ESE,112,0.0,0.0,98,0.00,,,0.00,WUHU216WMR100,2013-10-22 14:07:00,
2013-10-22 07:12:00,45.7,45.1,29.88,ESE,112,0.0,0.0,98,0.00,,,0.00,WUHU216WMR100,2013-10-22 14:12:00,
2013-10-22 07:17:00,45.7,45.1,29.88,ESE,112,0.0,0.0,98,0.00,,,0.00,WUHU216WMR100,2013-10-22 14:17:00,
2013-10-22 07:22:00,45.9,45.3,29.91,ESE,112,0.0,1.1,98,0.00,,,0.00,WUHU216WMR100,2013-10-22 14:22:00,
2013-10-22 07:27:00,45.5,44.9,29.91,ESE,112,0.0,1.1,98,0.00,,,0.00,WUHU216WMR100,2013-10-22 14:27:00,
2013-10-22 07:32:00,45.3,44.7,29.91,ESE,112,0.0,0.0,98,0.00,,,0.00,WUHU216WMR100,2013-10-22 14:32:00,
2013-10-22 07:37:00,45.3,44.7,29.91,ESE,112,0.0,0.0,98,0.00,,,0.00,WUHU216WMR100,2013-10-22 14:37:00,
2013-10-22 07:42:00,45.1,44.5,29.91,ESE,112,0.0,0.0,98,0.00,,,0.00,WUHU216WMR100,2013-10-22 14:42:00,
2013-10-22 07:47:00,45.1,44.5,29.91,ESE,112,0.0,0.0,98,0.00,,,0.00,WUHU216WMR100,2013-10-22 14:47:00,
2013-10-22 07:52:00,45.3,44.7,29.91,ESE,112,0.0,0.0,98,0.00,,,0.00,WUHU216WMR100,2013-10-22 14:52:00,
2013-10-22 07:57:00,45.3,44.7,29.91,ESE,112,0.0,0.0,98,0.00,,,0.00,WUHU216WMR100,2013-10-22 14:57:00,
2013-10-22 08:02:00,45.3,44.7,29.91,ESE,112,0.0,0.0,98,0.00,,,0.00,WUHU216WMR100,2013-10-22 15:02:00,
2013-10-22 08:07:00,45.3,44.7,29.91,ESE,112,0.0,0.0,98,0.00,,,0.00,WUHU216WMR100,2013-10-22 15:07:00,
2013-10-22 08:12:00,45.5,44.9,29.91,ESE,112,0.0,0.0,98,0.00,,,0.00,WUHU216WMR100,2013-10-22 15:12:00,
2013-10-22 08:17:00,45.5,44.9,29.91,ESE,112,0.0,0.0,98,0.00,,,0.00,WUHU216WMR100,2013-10-22 15:17:00,
2013-10-22 08:22:00,45.7,45.1,29.91,ESE,112,0.0,0.0,98,0.00,,,0.00,WUHU216WMR100,2013-10-22 15:22:00,
2013-10-22 08:27:00,45.7,45.1,29.91,ESE,112,0.0,0.0,98,0.00,,,0.00,WUHU216WMR100,2013-10-22 15:27:00,
2013-10-22 08:32:00,45.9,45.3,29.91,ESE,112,0.0,0.0,98,0.00,,,0.00,WUHU216WMR100,2013-10-22 15:32:00,
2013-10-22 08:37:00,46.4,45.8,29.91,ESE,112,0.0,1.6,98,0.00,,,0.00,WUHU216WMR100,2013-10-22 15:37:00,
2013-10-22 08:42:00,47.1,46.5,29.91,ESE,112,1.1,1.6,98,0.00,,,0.00,WUHU216WMR100,2013-10-22 15:42:00,
2013-10-22 08:47:00,47.8,47.2,29.91,ESE,112,0.0,1.6,98,0.00,,,0.00,WUHU216WMR100,2013-10-22 15:47:00,
2013-10-22 08:52:00,48.4,47.8,29.91,ESE,112,0.0,1.6,98,0.00,,,0.00,WUHU216WMR100,2013-10-22 15:52:00,
2013-10-22 08:57:00,48.6,48.0,29.91,ESE,112,0.0,1.6,98,0.00,,,0.00,WUHU216WMR100,2013-10-22 15:57:00,
2013-10-22 09:02:00,48.9,48.3,29.91,ESE,112,0.0,0.0,98,0.00,,,0.00,WUHU216WMR100,2013-10-22 16:02:00,
2013-10-22 09:07:00,49.3,48.7,29.91,ESE,112,0.0,0.0,98,0.00,,,0.00,WUHU216WMR100,2013-10-22 16:07:00,
2013-10-22 09:12:00,49.8,49.2,29.91,ESE,112,0.0,2.0,98,0.00,,,0.00,WUHU216WMR100,2013-10-22 16:12:00,
2013-10-22 09:17:00,50.0,49.4,29.91,ESE,112,1.1,3.1,98,0.00,,,0.00,WUHU216WMR100,2013-10-22 16:17:00,
2013-10-22 09:22:00,50.2,49.6,29.91,ESE,112,3.4,4.9,98,0.00,,,0.00,WUHU216WMR100,2013-10-22 16:22:00,
2013-10-22 09:27:00,50.4,49.8,29.91,ESE,112,2.9,4.9,98,0.00,,,0.00,WUHU216WMR100,2013-10-22 16:27:00,
2013-10-22 09:32:00,50.4,49.8,29.91,ESE,112,2.7,4.7,98,0.00,,,0.00,WUHU216WMR100,2013-10-22 16:32:00,
2013-10-22 09:37:00,51.1,50.5,29.91,ESE,112,2.9,4.7,98,0.00,,,0.00,WUHU216WMR100,2013-10-22 16:37:00,
2013-10-22 09:42:00,52.0,51.4,29.91,ESE,112,0.0,3.6,98,0.00,,,0.00,WUHU216WMR100,2013-10-22 16:42:00,
2013-10-22 09:47:00,52.5,51.9,29.91,ESE,112,2.7,3.6,98,0.00,,,0.00,WUHU216WMR100,2013-10-22 16:47:00,
2013-10-22 09:52:00,53.4,52.8,29.91,ESE,112,0.9,3.4,98,0.00,,,0.00,WUHU216WMR100,2013-10-22 16:52:00,
2013-10-22 09:57:00,53.6,53.0,29.91,ESE,112,0.0,2.9,98,0.00,,,0.00,WUHU216WMR100,2013-10-22 16:57:00,
2013-10-22 10:02:00,53.4,52.8,29.91,ESE,112,2.0,3.1,98,0.00,,,0.00,WUHU216WMR100,2013-10-22 17:02:00,
2013-10-22 10:07:00,53.6,53.0,29.91,ESE,112,2.9,3.8,98,0.00,,,0.00,WUHU216WMR100,2013-10-22 17:07:00,
2013-10-22 10:12:00,53.2,52.6,29.91,ESE,112,0.0,3.8,98,0.00,,,0.00,WUHU216WMR100,2013-10-22 17:12:00,
2013-10-22 10:17:00,53.4,52.8,29.91,ESE,112,2.2,3.8,98,0.00,,,0.00,WUHU216WMR100,2013-10-22 17:17:00,
2013-10-22 10:22:00,54.5,53.9,29.91,ESE,112,1.1,3.1,98,0.00,,,0.00,WUHU216WMR100,2013-10-22 17:22:00,
2013-10-22 10:26:00,53.6,52.7,29.91,ESE,112,2.7,5.6,97,0.00,,,0.00,WUHU216WMR100,2013-10-22 17:26:00,
2013-10-22 10:32:00,53.8,52.9,29.91,ESE,112,1.3,5.6,97,0.00,,,0.00,WUHU216WMR100,2013-10-22 17:32:00,
2013-10-22 10:36:00,53.8,52.4,29.91,NE,45,2.9,5.8,95,0.00,,,0.00,WUHU216WMR100,2013-10-22 17:36:00,
2013-10-22 10:41:00,53.2,51.5,29.91,NE,45,4.3,5.8,94,0.00,,,0.00,WUHU216WMR100,2013-10-22 17:41:00,
2013-10-22 10:46:00,52.9,51.2,29.91,NE,45,5.4,6.3,94,0.00,,,0.00,WUHU216WMR100,2013-10-22 17:46:00,
2013-10-22 10:51:00,52.5,50.5,29.91,NE,45,4.3,6.5,93,0.00,,,0.00,WUHU216WMR100,2013-10-22 17:51:00,
2013-10-22 10:56:00,52.5,50.8,29.91,NE,45,3.1,6.5,94,0.00,,,0.00,WUHU216WMR100,2013-10-22 17:56:00,
2013-10-22 11:01:00,52.7,51.3,29.91,NE,45,2.7,6.0,95,0.00,,,0.00,WUHU216WMR100,2013-10-22 18:01:00,
2013-10-22 11:06:00,53.1,51.7,29.91,NE,45,2.5,6.0,95,0.00,,,0.00,WUHU216WMR100,2013-10-22 18:06:00,
2013-10-22 11:11:00,53.8,52.4,29.91,NE,45,2.5,4.9,95,0.00,,,0.00,WUHU216WMR100,2013-10-22 18:11:00,
2013-10-22 11:16:00,53.8,52.1,29.91,NE,45,3.1,6.3,94,0.00,,,0.00,WUHU216WMR100,2013-10-22 18:16:00,
2013-10-22 11:21:00,53.8,52.1,29.91,NE,45,4.3,6.3,94,0.00,,,0.00,WUHU216WMR100,2013-10-22 18:21:00,
2013-10-22 11:26:00,54.0,52.3,29.91,NE,45,3.4,5.8,94,0.00,,,0.00,WUHU216WMR100,2013-10-22 18:26:00,
2013-10-22 11:31:00,54.0,52.3,29.91,NE,45,3.6,5.8,94,0.00,,,0.00,WUHU216WMR100,2013-10-22 18:31:00,
2013-10-22 11:36:00,54.3,52.6,29.91,NE,45,4.7,6.5,94,0.00,,,0.00,WUHU216WMR100,2013-10-22 18:36:00,
2013-10-22 11:41:00,54.5,52.5,29.91,NE,45,2.2,7.4,93,0.00,,,0.00,WUHU216WMR100,2013-10-22 18:41:00,
2013-10-22 11:46:00,54.7,52.7,29.91,NE,45,2.7,7.6,93,0.00,,,0.00,WUHU216WMR100,2013-10-22 18:46:00,
2013-10-22 11:51:00,54.9,52.9,29.91,NE,45,3.6,7.6,93,0.00,,,0.00,WUHU216WMR100,2013-10-22 18:51:00,
2013-10-22 11:56:00,54.9,52.9,29.94,NE,45,3.8,5.8,93,0.00,,,0.00,WUHU216WMR100,2013-10-22 18:56:00,
2013-10-22 12:01:00,55.2,53.2,29.94,NE,45,4.3,5.8,93,0.00,,,0.00,WUHU216WMR100,2013-10-22 19:01:00,
2013-10-22 12:06:00,55.0,52.7,29.94,NE,45,3.8,8.5,92,0.00,,,0.00,WUHU216WMR100,2013-10-22 19:06:00,
2013-10-22 12:11:00,55.2,52.9,29.91,SSE,157,4.0,8.5,92,0.00,,,0.00,WUHU216WMR100,2013-10-22 19:11:00,
2013-10-22 12:16:00,54.9,52.3,29.91,NW,315,5.4,6.7,91,0.00,,,0.00,WUHU216WMR100,2013-10-22 19:16:00,
2013-10-22 12:21:00,55.0,52.4,29.91,West,270,4.5,7.2,91,0.00,,,0.00,WUHU216WMR100,2013-10-22 19:21:00,
2013-10-22 12:26:00,55.0,52.4,29.91,NW,315,3.4,7.2,91,0.00,,,0.00,WUHU216WMR100,2013-10-22 19:26:00,
2013-10-22 12:31:00,55.9,53.3,29.91,WSW,247,2.2,6.3,91,0.00,,,0.00,WUHU216WMR100,2013-10-22 19:31:00,
2013-10-22 12:36:00,55.9,53.0,29.91,West,270,3.4,6.3,90,0.00,,,0.00,WUHU216WMR100,2013-10-22 19:36:00,
2013-10-22 12:41:00,56.1,53.2,29.91,NW,315,4.5,6.3,90,0.00,,,0.00,WUHU216WMR100,2013-10-22 19:41:00,
2013-10-22 12:46:00,55.9,52.7,29.91,NW,315,4.0,6.3,89,0.00,,,0.00,WUHU216WMR100,2013-10-22 19:46:00,
2013-10-22 12:51:00,55.6,52.1,29.91,WSW,247,3.8,7.8,88,0.00,,,0.00,WUHU216WMR100,2013-10-22 19:51:00,
2013-10-22 12:56:00,55.4,52.2,29.91,NW,315,3.8,7.8,89,0.00,,,0.00,WUHU216WMR100,2013-10-22 19:56:00,
2013-10-22 13:01:00,55.6,52.7,29.91,WSW,247,2.7,6.5,90,0.00,,,0.00,WUHU216WMR100,2013-10-22 20:01:00,
2013-10-22 13:06:00,55.4,52.5,29.91,WSW,247,4.5,6.0,90,0.00,,,0.00,WUHU216WMR100,2013-10-22 20:06:00,
2013-10-22 13:11:00,55.0,52.4,29.91,West,270,3.1,5.8,91,0.00,,,0.00,WUHU216WMR100,2013-10-22 20:11:00,
2013-10-22 13:16:00,54.9,52.3,29.91,WSW,247,4.5,6.5,91,0.00,,,0.00,WUHU216WMR100,2013-10-22 20:16:00,
2013-10-22 13:21:00,54.9,52.3,29.91,West,270,4.3,6.5,91,0.00,,,0.00,WUHU216WMR100,2013-10-22 20:21:00,
2013-10-22 13:26:00,55.0,52.7,29.91,West,270,4.3,6.5,92,0.00,,,0.00,WUHU216WMR100,2013-10-22 20:26:00,
2013-10-22 13:31:00,54.9,52.3,29.91,West,270,3.6,5.4,91,0.00,,,0.00,WUHU216WMR100,2013-10-22 20:31:00,
2013-10-22 13:36:00,54.7,52.1,29.91,West,270,3.6,6.3,91,0.00,,,0.00,WUHU216WMR100,2013-10-22 20:36:00,
2013-10-22 13:41:00,54.7,52.1,29.91,West,270,3.6,6.3,91,0.00,,,0.00,WUHU216WMR100,2013-10-22 20:41:00,
2013-10-22 13:46:00,54.7,52.4,29.91,WSW,247,3.6,5.6,92,0.00,,,0.00,WUHU216WMR100,2013-10-22 20:46:00,
2013-10-22 13:51:00,54.1,51.8,29.91,WSW,247,4.0,6.3,92,0.00,,,0.00,WUHU216WMR100,2013-10-22 20:51:00,
2013-10-22 13:56:00,54.3,52.3,29.91,West,270,2.0,6.3,93,0.00,,,0.00,WUHU216WMR100,2013-10-22 20:56:00,
2013-10-22 14:01:00,54.1,52.1,29.91,NW,315,3.8,6.0,93,0.00,,,0.00,WUHU216WMR100,2013-10-22 21:01:00,
2013-10-22 14:06:00,54.0,52.0,29.91,WSW,247,3.1,6.0,93,0.00,,,0.00,WUHU216WMR100,2013-10-22 21:06:00,
2013-10-22 14:11:00,54.1,52.1,29.91,WSW,247,2.9,5.8,93,0.00,,,0.00,WUHU216WMR100,2013-10-22 21:11:00,
2013-10-22 14:16:00,54.1,52.1,29.91,WSW,247,2.9,4.9,93,0.00,,,0.00,WUHU216WMR100,2013-10-22 21:16:00,
2013-10-22 14:21:00,54.3,52.3,29.91,WSW,247,1.6,4.7,93,0.00,,,0.00,WUHU216WMR100,2013-10-22 21:21:00,
2013-10-22 14:26:00,54.5,52.5,29.91,WSW,247,2.7,4.3,93,0.00,,,0.00,WUHU216WMR100,2013-10-22 21:26:00,
2013-10-22 14:31:00,54.5,52.5,29.91,NW,315,0.9,4.7,93,0.00,,,0.00,WUHU216WMR100,2013-10-22 21:31:00,
2013-10-22 14:36:00,54.5,52.5,29.91,NW,315,2.9,4.9,93,0.00,,,0.00,WUHU216WMR100,2013-10-22 21:36:00,
2013-10-22 14:41:00,54.5,52.5,29.91,WNW,292,2.9,4.9,93,0.00,,,0.00,WUHU216WMR100,2013-10-22 21:41:00,
2013-10-22 14:46:00,54.5,52.5,29.91,West,270,3.4,4.9,93,0.00,,,0.00,WUHU216WMR100,2013-10-22 21:46:00,
2013-10-22 14:51:00,54.5,52.5,29.91,West,270,0.9,4.9,93,0.00,,,0.00,WUHU216WMR100,2013-10-22 21:51:00,
2013-10-22 14:56:00,54.5,52.5,29.91,West,270,2.0,4.9,93,0.00,,,0.00,WUHU216WMR100,2013-10-22 21:56:00,
2013-10-22 15:01:00,54.1,52.1,29.91,WSW,247,3.8,5.4,93,0.00,,,0.00,WUHU216WMR100,2013-10-22 22:01:00,
2013-10-22 15:06:00,54.1,52.4,29.91,WSW,247,2.2,5.4,94,0.00,,,0.00,WUHU216WMR100,2013-10-22 22:06:00,
2013-10-22 15:11:00,53.8,52.1,29.91,WSW,247,2.9,5.8,94,0.00,,,0.00,WUHU216WMR100,2013-10-22 22:11:00,
2013-10-22 15:16:00,54.0,52.3,29.91,WSW,247,3.8,5.8,94,0.00,,,0.00,WUHU216WMR100,2013-10-22 22:16:00,
2013-10-22 15:21:00,53.8,52.1,29.91,WSW,247,3.4,5.6,94,0.00,,,0.00,WUHU216WMR100,2013-10-22 22:21:00,
2013-10-22 15:26:00,53.8,52.1,29.91,WSW,247,2.5,4.3,94,0.00,,,0.00,WUHU216WMR100,2013-10-22 22:26:00,
2013-10-22 15:31:00,54.0,52.6,29.91,WSW,247,2.2,4.0,95,0.00,,,0.00,WUHU216WMR100,2013-10-22 22:31:00,
2013-10-22 15:36:00,54.1,52.7,29.91,WSW,247,1.6,3.6,95,0.00,,,0.00,WUHU216WMR100,2013-10-22 22:36:00,
2013-10-22 15:41:00,54.1,52.7,29.91,WSW,247,1.1,4.0,95,0.00,,,0.00,WUHU216WMR100,2013-10-22 22:41:00,
2013-10-22 15:46:00,54.1,52.7,29.91,WSW,247,2.2,4.3,95,0.00,,,0.00,WUHU216WMR100,2013-10-22 22:46:00,
2013-10-22 15:51:00,54.0,52.6,29.91,WSW,247,2.2,4.3,95,0.00,,,0.00,WUHU216WMR100,2013-10-22 22:51:00,
2013-10-22 15:56:00,54.0,52.6,29.91,WSW,247,2.0,4.0,95,0.00,,,0.00,WUHU216WMR100,2013-10-22 22:56:00,
2013-10-22 16:01:00,54.0,52.6,29.91,WSW,247,0.0,3.8,95,0.00,,,0.00,WUHU216WMR100,2013-10-22 23:01:00,
2013-10-22 16:06:00,53.8,52.4,29.91,WSW,247,1.1,3.6,95,0.00,,,0.00,WUHU216WMR100,2013-10-22 23:06:00,
2013-10-22 16:11:00,54.0,52.6,29.91,WSW,247,1.1,3.6,95,0.00,,,0.00,WUHU216WMR100,2013-10-22 23:11:00,
2013-10-22 16:16:00,53.8,52.4,29.91,WSW,247,2.7,3.8,95,0.00,,,0.00,WUHU216WMR100,2013-10-22 23:16:00,
2013-10-22 16:21:00,53.8,52.4,29.91,WSW,247,0.0,3.8,95,0.00,,,0.00,WUHU216WMR100,2013-10-22 23:21:00,
2013-10-22 16:26:00,53.8,52.4,29.91,WSW,247,1.3,2.9,95,0.00,,,0.00,WUHU216WMR100,2013-10-22 23:26:00,
2013-10-22 16:31:00,53.6,52.2,29.91,WSW,247,2.0,2.9,95,0.00,,,0.00,WUHU216WMR100,2013-10-22 23:31:00,
2013-10-22 16:36:00,53.8,52.4,29.91,WSW,247,1.1,3.1,95,0.00,,,0.00,WUHU216WMR100,2013-10-22 23:36:00,
2013-10-22 16:41:00,53.6,52.2,29.91,WSW,247,2.2,3.1,95,0.00,,,0.00,WUHU216WMR100,2013-10-22 23:41:00,
2013-10-22 16:46:00,53.4,52.0,29.91,WSW,247,2.9,3.6,95,0.00,,,0.00,WUHU216WMR100,2013-10-22 23:46:00,
2013-10-22 16:51:00,53.2,51.8,29.91,WSW,247,0.9,3.6,95,0.00,,,0.00,WUHU216WMR100,2013-10-22 23:51:00,
2013-10-22 16:56:00,53.2,52.1,29.91,WSW,247,0.0,3.4,96,0.00,,,0.00,WUHU216WMR100,2013-10-22 23:56:00,
2013-10-22 17:01:00,53.2,52.1,29.91,WSW,247,0.0,2.7,96,0.00,,,0.00,WUHU216WMR100,2013-10-23 00:01:00,
2013-10-22 17:06:00,53.2,52.1,29.91,WSW,247,0.0,2.0,96,0.00,,,0.00,WUHU216WMR100,2013-10-23 00:06:00,
2013-10-22 17:11:00,53.1,52.0,29.88,WSW,247,1.6,2.7,96,0.00,,,0.00,WUHU216WMR100,2013-10-23 00:11:00,
2013-10-22 17:16:00,53.1,52.0,29.88,WSW,247,0.0,2.9,96,0.00,,,0.00,WUHU216WMR100,2013-10-23 00:16:00,
2013-10-22 17:21:00,52.9,51.8,29.88,WSW,247,0.0,2.9,96,0.00,,,0.00,WUHU216WMR100,2013-10-23 00:21:00,
2013-10-22 17:26:00,53.1,52.2,29.88,WSW,247,0.0,2.9,97,0.00,,,0.00,WUHU216WMR100,2013-10-23 00:26:00,
2013-10-22 17:31:00,52.9,52.0,29.88,WSW,247,0.0,1.1,97,0.00,,,0.00,WUHU216WMR100,2013-10-23 00:31:00,
2013-10-22 17:36:00,53.1,52.2,29.88,WSW,247,0.0,1.1,97,0.00,,,0.00,WUHU216WMR100,2013-10-23 00:36:00,
2013-10-22 17:41:00,53.1,52.2,29.88,WSW,247,0.0,0.0,97,0.00,,,0.00,WUHU216WMR100,2013-10-23 00:41:00,
2013-10-22 17:46:00,53.1,52.2,29.88,WSW,247,0.9,1.3,97,0.00,,,0.00,WUHU216WMR100,2013-10-23 00:46:00,
2013-10-22 17:51:00,52.9,51.8,29.88,WSW,247,0.0,2.7,96,0.00,,,0.00,WUHU216WMR100,2013-10-23 00:51:00,
2013-10-22 17:56:00,52.9,51.8,29.88,WSW,247,0.0,2.7,96,0.00,,,0.00,WUHU216WMR100,2013-10-23 00:56:00,
2013-10-22 18:01:00,52.9,51.8,29.88,WSW,247,0.0,0.0,96,0.00,,,0.00,WUHU216WMR100,2013-10-23 01:01:00,
2013-10-22 18:06:00,52.7,51.6,29.88,WSW,247,1.6,2.9,96,0.00,,,0.00,WUHU216WMR100,2013-10-23 01:06:00,
2013-10-22 18:11:00,52.5,51.4,29.88,WSW,247,0.0,2.9,96,0.00,,,0.00,WUHU216WMR100,2013-10-23 01:11:00,
2013-10-22 18:16:00,52.5,51.4,29.88,WSW,247,0.0,2.7,96,0.00,,,0.00,WUHU216WMR100,2013-10-23 01:16:00,
2013-10-22 18:21:00,52.3,51.2,29.88,WSW,247,0.0,2.7,96,0.00,,,0.00,WUHU216WMR100,2013-10-23 01:21:00,
2013-10-22 18:26:00,52.2,51.1,29.88,WSW,247,0.0,2.5,96,0.00,,,0.00,WUHU216WMR100,2013-10-23 01:26:00,
2013-10-22 18:31:00,52.2,51.3,29.88,WSW,247,0.0,1.3,97,0.00,,,0.00,WUHU216WMR100,2013-10-23 01:31:00,
2013-10-22 18:36:00,52.2,51.3,29.88,WSW,247,0.0,1.3,97,0.00,,,0.00,WUHU216WMR100,2013-10-23 01:36:00,
2013-10-22 18:41:00,52.2,51.3,29.88,WSW,247,0.0,0.0,97,0.00,,,0.00,WUHU216WMR100,2013-10-23 01:41:00,
2013-10-22 18:46:00,52.2,51.3,29.88,WSW,247,0.0,0.0,97,0.00,,,0.00,WUHU216WMR100,2013-10-23 01:46:00,
2013-10-22 18:51:00,52.2,51.3,29.88,WSW,247,0.0,0.0,97,0.00,,,0.00,WUHU216WMR100,2013-10-23 01:51:00,
2013-10-22 18:56:00,52.2,51.3,29.88,WSW,247,0.0,0.0,97,0.00,,,0.00,WUHU216WMR100,2013-10-23 01:56:00,
2013-10-22 19:01:00,52.0,51.1,29.88,WSW,247,0.0,0.0,97,0.00,,,0.00,WUHU216WMR100,2013-10-23 02:01:00,
2013-10-22 19:06:00,52.0,51.1,29.88,WSW,247,0.0,0.0,97,0.00,,,0.00,WUHU216WMR100,2013-10-23 02:06:00,
2013-10-22 19:11:00,52.0,51.1,29.88,WSW,247,0.0,0.0,97,0.00,,,0.00,WUHU216WMR100,2013-10-23 02:11:00,
2013-10-22 19:16:00,51.8,50.9,29.88,WSW,247,0.0,0.0,97,0.00,,,0.00,WUHU216WMR100,2013-10-23 02:16:00,
2013-10-22 19:21:00,51.8,50.9,29.88,WSW,247,1.3,2.0,97,0.00,,,0.00,WUHU216WMR100,2013-10-23 02:21:00,
2013-10-22 19:26:00,51.8,50.9,29.88,WSW,247,0.0,2.0,97,0.00,,,0.00,WUHU216WMR100,2013-10-23 02:26:00,
2013-10-22 19:31:00,51.8,51.2,29.88,WSW,247,0.0,1.3,98,0.00,,,0.00,WUHU216WMR100,2013-10-23 02:31:00,
2013-10-22 19:36:00,51.6,51.0,29.88,WSW,247,0.0,1.3,98,0.00,,,0.00,WUHU216WMR100,2013-10-23 02:36:00,
2013-10-22 19:41:00,51.6,51.0,29.88,WSW,247,0.0,1.6,98,0.00,,,0.00,WUHU216WMR100,2013-10-23 02:41:00,
2013-10-22 19:46:00,51.6,51.0,29.88,WSW,247,0.0,1.6,98,0.00,,,0.00,WUHU216WMR100,2013-10-23 02:46:00,
2013-10-22 19:51:00,51.6,51.0,29.88,WSW,247,0.0,0.0,98,0.00,,,0.00,WUHU216WMR100,2013-10-23 02:51:00,
2013-10-22 19:56:00,51.6,51.0,29.88,WSW,247,0.0,0.0,98,0.00,,,0.00,WUHU216WMR100,2013-10-23 02:56:00,
2013-10-22 20:01:00,51.6,51.0,29.88,WSW,247,0.0,0.0,98,0.00,,,0.00,WUHU216WMR100,2013-10-23 03:01:00,
2013-10-22 20:06:00,51.6,51.0,29.88,WSW,247,0.0,1.6,98,0.00,,,0.00,WUHU216WMR100,2013-10-23 03:06:00,
2013-10-22 20:12:00,51.6,51.0,29.88,WSW,247,0.0,1.6,98,0.00,,,0.00,WUHU216WMR100,2013-10-23 03:12:00,
2013-10-22 20:17:00,51.6,51.0,29.88,WSW,247,0.0,0.9,98,0.00,,,0.00,WUHU216WMR100,2013-10-23 03:17:00,
2013-10-22 20:22:00,51.6,51.0,29.88,WSW,247,0.0,0.0,98,0.00,,,0.00,WUHU216WMR100,2013-10-23 03:22:00,
2013-10-22 20:27:00,51.4,50.8,29.88,WSW,247,1.1,2.0,98,0.00,,,0.00,WUHU216WMR100,2013-10-23 03:27:00,
2013-10-22 20:32:00,51.4,50.8,29.88,WSW,247,0.0,2.0,98,0.00,,,0.00,WUHU216WMR100,2013-10-23 03:32:00,
2013-10-22 20:37:00,51.4,50.8,29.88,WSW,247,0.0,1.1,98,0.00,,,0.00,WUHU216WMR100,2013-10-23 03:37:00,
2013-10-22 20:42:00,51.6,51.0,29.88,WSW,247,0.0,1.3,98,0.00,,,0.00,WUHU216WMR100,2013-10-23 03:42:00,
2013-10-22 20:47:00,51.6,51.0,29.88,WSW,247,0.0,1.3,98,0.00,,,0.00,WUHU216WMR100,2013-10-23 03:47:00,
2013-10-22 20:52:00,51.4,50.8,29.88,WSW,247,0.0,1.1,98,0.00,,,0.00,WUHU216WMR100,2013-10-23 03:52:00,
2013-10-22 20:57:00,51.4,50.8,29.88,WSW,247,0.0,0.0,98,0.00,,,0.00,WUHU216WMR100,2013-10-23 03:57:00,
2013-10-22 21:01:00,51.4,50.8,29.88,WSW,247,0.0,0.0,98,0.00,,,0.00,WUHU216WMR100,2013-10-23 04:01:00,
2013-10-22 21:06:00,51.4,50.8,29.88,WSW,247,0.0,0.0,98,0.00,,,0.00,WUHU216WMR100,2013-10-23 04:06:00,
2013-10-22 21:11:00,51.3,50.7,29.88,WSW,247,0.0,0.0,98,0.00,,,0.00,WUHU216WMR100,2013-10-23 04:11:00,
2013-10-22 21:16:00,51.3,50.7,29.88,WSW,247,0.0,0.0,98,0.00,,,0.00,WUHU216WMR100,2013-10-23 04:16:00,
2013-10-22 21:21:00,51.3,50.7,29.88,WSW,247,0.0,0.0,98,0.00,,,0.00,WUHU216WMR100,2013-10-23 04:21:00,
2013-10-22 21:26:00,51.3,50.7,29.91,WSW,247,0.0,0.0,98,0.00,,,0.00,WUHU216WMR100,2013-10-23 04:26:00,
2013-10-22 21:31:00,51.4,50.8,29.91,WSW,247,0.0,0.0,98,0.00,,,0.00,WUHU216WMR100,2013-10-23 04:31:00,
2013-10-22 21:36:00,51.3,50.7,29.91,WSW,247,0.0,0.0,98,0.00,,,0.00,WUHU216WMR100,2013-10-23 04:36:00,
2013-10-22 21:41:00,51.3,50.7,29.88,WSW,247,0.0,2.0,98,0.00,,,0.00,WUHU216WMR100,2013-10-23 04:41:00,
2013-10-22 21:46:00,51.1,50.5,29.88,WSW,247,1.3,3.1,98,0.00,,,0.00,WUHU216WMR100,2013-10-23 04:46:00,
2013-10-22 21:51:00,51.1,50.5,29.88,WSW,247,0.0,3.1,98,0.00,,,0.00,WUHU216WMR100,2013-10-23 04:51:00,
2013-10-22 21:56:00,50.9,50.3,29.88,WSW,247,1.1,2.5,98,0.00,,,0.00,WUHU216WMR100,2013-10-23 04:56:00,
2013-10-22 22:01:00,51.1,50.5,29.88,WSW,247,0.0,2.7,98,0.00,,,0.00,WUHU216WMR100,2013-10-23 05:01:00,
2013-10-22 22:06:00,50.9,50.3,29.88,WSW,247,0.0,2.7,98,0.00,,,0.00,WUHU216WMR100,2013-10-23 05:06:00,
2013-10-22 22:11:00,50.9,50.3,29.91,WSW,247,2.0,2.7,98,0.00,,,0.00,WUHU216WMR100,2013-10-23 05:11:00,
2013-10-22 22:16:00,50.9,50.3,29.91,WSW,247,2.2,2.7,98,0.00,,,0.00,WUHU216WMR100,2013-10-23 05:16:00,
2013-10-22 22:21:00,50.7,50.1,29.91,WSW,247,0.0,2.7,98,0.00,,,0.00,WUHU216WMR100,2013-10-23 05:21:00,
2013-10-22 22:26:00,50.5,49.9,29.91,WSW,247,0.0,2.2,98,0.00,,,0.00,WUHU216WMR100,2013-10-23 05:26:00,
2013-10-22 22:31:00,50.7,50.1,29.91,WSW,247,0.0,0.0,98,0.00,,,0.00,WUHU216WMR100,2013-10-23 05:31:00,
2013-10-22 22:36:00,50.5,49.9,29.91,WSW,247,0.0,0.0,98,0.00,,,0.00,WUHU216WMR100,2013-10-23 05:36:00,
2013-10-22 22:41:00,50.5,49.9,29.91,WSW,247,0.0,0.0,98,0.00,,,0.00,WUHU216WMR100,2013-10-23 05:41:00,
2013-10-22 22:46:00,50.7,50.1,29.91,WSW,247,0.0,0.0,98,0.00,,,0.00,WUHU216WMR100,2013-10-23 05:46:00,
2013-10-22 22:51:00,50.7,50.1,29.91,WSW,247,0.0,0.0,98,0.00,,,0.00,WUHU216WMR100,2013-10-23 05:51:00,
2013-10-22 22:56:00,50.5,49.9,29.91,WSW,247,0.0,2.0,98,0.00,,,0.00,WUHU216WMR100,2013-10-23 05:56:00,
2013-10-22 23:01:00,50.7,50.1,29.91,WSW,247,0.0,2.0,98,0.00,,,0.00,WUHU216WMR100,2013-10-23 06:01:00,
2013-10-22 23:06:00,50.7,50.1,29.91,WSW,247,0.0,0.9,98,0.00,,,0.00,WUHU216WMR100,2013-10-23 06:06:00,
2013-10-22 23:11:00,50.7,50.1,29.91,WSW,247,0.0,0.0,98,0.00,,,0.00,WUHU216WMR100,2013-10-23 06:11:00,
2013-10-22 23:16:00,50.5,49.9,29.91,WSW,247,0.0,0.0,98,0.00,,,0.00,WUHU216WMR100,2013-10-23 06:16:00,
2013-10-22 23:21:00,50.5,49.9,29.91,WSW,247,0.0,0.0,98,0.00,,,0.00,WUHU216WMR100,2013-10-23 06:21:00,
2013-10-22 23:26:00,50.7,50.1,29.91,WSW,247,0.0,0.0,98,0.00,,,0.00,WUHU216WMR100,2013-10-23 06:26:00,
2013-10-22 23:31:00,50.7,50.1,29.91,WSW,247,0.0,0.0,98,0.00,,,0.00,WUHU216WMR100,2013-10-23 06:31:00,
2013-10-22 23:36:00,50.7,50.1,29.91,WSW,247,0.0,0.0,98,0.00,,,0.00,WUHU216WMR100,2013-10-23 06:36:00,
2013-10-22 23:41:00,50.5,49.9,29.91,WSW,247,0.0,0.0,98,0.00,,,0.00,WUHU216WMR100,2013-10-23 06:41:00,
2013-10-22 23:46:00,50.5,49.9,29.91,WSW,247,0.0,0.0,98,0.00,,,0.00,WUHU216WMR100,2013-10-23 06:46:00,
2013-10-22 23:51:00,50.7,50.1,29.91,WSW,247,0.0,0.0,98,0.00,,,0.00,WUHU216WMR100,2013-10-23 06:51:00,
2013-10-22 23:56:00,50.5,49.9,29.91,WSW,247,0.0,0.0,98,0.00,,,0.00,WUHU216WMR100,2013-10-23 06:56:00,